Latest Weather Observations for Camooweal

IDD60801

Issued at 8:01 am CST Wednesday 22 November 2017 (issued every 30 minutes, with the page automatically refreshed every 10 minutes)

About weather observations | Map of weather stations | Latest weather observations for NT | Other Formats
Station Details ID: 037010 Name: CAMOOWEAL TOWNSHIP Lat: -19.92 Lon: 138.12 Height: 231.2 m
Data from the previous 72 hours. | See also: Recent months at Camooweal
Date/Time
CST
Temp
°C
App
Temp
°C
Dew
Point
°C
Rel
Hum
%
Delta-T
°C
Wind Press
QNH
hPa
Press
MSL
hPa
Rain since
9am
mm
Dir  Spd
km/h
Gust
km/h
Spd
kts
Gust
kts
22/08:00am 26.0 27.8 20.3 71 3.8 N 11 17 6 9 1009.3 1007.7 19.4
22/07:30am 24.9 27.5 20.4 76 3.0 NE 7 11 4 6 1009.3 1007.7 19.4
22/07:00am 23.9 25.8 19.8 78 2.7 ENE 9 11 5 6 1009.2 1007.6 19.4
22/06:30am 23.1 25.3 20.4 85 1.8 E 9 11 5 6 1008.9 1007.2 19.4
22/06:00am 21.9 24.5 20.0 89 1.2 E 6 7 3 4 1008.2 1006.5 19.4
22/05:30am 21.5 24.9 19.4 88 1.3 CALM 0 0 0 0 1008.2 1006.5 19.4
22/05:00am 21.8 24.1 19.5 87 1.5 NE 6 9 3 5 1007.9 1006.2 19.4
22/04:30am 22.1 23.9 19.6 86 1.6 NE 9 13 5 7 1007.4 1005.7 19.4
22/04:00am 22.4 23.8 19.6 84 1.8 ENE 11 13 6 7 1007.4 1005.7 19.4
22/03:30am 22.8 23.9 19.6 82 2.1 NE 13 19 7 10 1007.2 1005.5 19.4
22/03:00am 23.1 24.4 20.1 83 2.0 NNE 13 19 7 10 1007.2 1005.5 19.4
22/02:30am 23.2 24.7 20.5 85 1.8 NNE 13 22 7 12 1007.6 1005.9 19.4
22/02:00am 23.4 24.0 20.3 83 2.0 NNE 17 20 9 11 1006.9 1005.2 19.4
22/01:30am 23.7 24.3 20.2 81 2.3 NE 17 22 9 12 1007.6 1005.9 19.4
22/01:00am 23.5 24.7 19.8 80 2.4 NE 13 17 7 9 1008.1 1006.4 19.4
22/12:30am 23.6 24.1 19.3 77 2.8 NE 15 20 8 11 1008.7 1007.0 19.4
22/12:00am 23.8 23.3 19.1 75 3.0 NE 20 30 11 16 1008.3 1006.6 19.4
 
Date/Time
CST
Temp
°C
App
Temp
°C
Dew
Point
°C
Rel
Hum
%
Delta-T
°C
Wind Press
QNH
hPa
Press
MSL
hPa
Rain since
9am
mm
Dir  Spd
km/h
Gust
km/h
Spd
kts
Gust
kts
21/11:30pm 23.3 22.8 19.9 81 2.2 ENE 22 30 12 16 1008.9 1007.2 19.4
21/11:00pm 23.1 23.0 19.9 82 2.1 NE 20 35 11 19 1008.4 1006.7 19.4
21/10:30pm 23.2 24.2 19.4 79 2.5 NNE 13 17 7 9 1007.4 1005.7 19.4
21/10:00pm 23.2 23.4 19.4 79 2.4 N 17 22 9 12 1006.8 1005.1 19.4
21/09:30pm 23.1 23.7 19.5 80 2.3 NNW 15 24 8 13 1006.9 1005.2 19.4
21/09:00pm 23.5 23.9 19.0 76 2.9 NNW 15 20 8 11 1007.1 1005.4 19.4
21/08:30pm 23.4 24.0 20.2 82 2.1 N 17 28 9 15 1006.6 1004.9 19.4
21/08:00pm 23.9 25.0 19.6 77 2.8 NE 13 19 7 10 1007.0 1005.3 19.4
21/07:30pm 23.6 24.5 20.1 81 2.3 ENE 15 30 8 16 1006.6 1004.9 19.4
21/07:00pm 23.7 24.3 20.2 81 2.3 N 17 22 9 12 1005.3 1003.7 19.4
21/06:30pm 23.3 25.9 20.4 84 1.9 NNE 7 13 4 7 1004.9 1003.2 19.4
21/06:00pm 23.0 22.5 19.0 78 2.6 W 20 30 11 16 1006.8 1005.1 19.0
21/05:30pm 23.4 22.0 18.7 75 3.0 W 24 35 13 19 1006.6 1004.9 18.4
21/05:00pm 24.3 24.3 18.2 68 3.9 NW 15 22 8 12 1006.5 1004.8 18.2
21/04:37pm 24.6 25.1 20.1 76 2.9 SSE 17 48 9 26 1006.2 1004.5 18.2
21/04:30pm 24.3 26.5 21.2 83 2.1 E 11 13 6 7 1004.3 1002.6 18.2
21/04:00pm 24.4 25.0 20.3 78 2.7 NW 17 33 9 18 1005.6 1004.0 17.8
21/03:30pm 22.9 24.0 21.9 94 0.7 NW 19 33 10 18 1005.5 1003.9 15.2
21/03:11pm 24.5 25.9 22.8 90 1.2 NNE 20 26 11 14 1005.0 1003.3 15.0
21/03:00pm 24.1 22.1 22.5 91 1.1 S 37 56 20 30 1007.1 1005.4 13.4
21/02:58pm 21.7 18.0 20.7 94 0.7 SSW 41 65 22 35 1007.4 1005.7 12.2
21/02:55pm 21.8 16.5 20.3 91 1.0 SSW 48 65 26 35 1007.6 1005.9 10.8
21/02:50pm 20.5 13.4 19.7 95 0.5 SSW 56 80 30 43 1007.6 1005.9 7.6
21/02:34pm 22.4 19.2 16.4 69 3.7 SSW 28 72 15 39 1005.8 1004.2 0.4
21/02:30pm 28.3 26.5 15.6 46 7.9 N 19 48 10 26 1005.8 1004.2 0.0
21/02:00pm 35.8 34.6 17.0 32 12.2 N 19 32 10 17 1004.3 1002.6 0.0
21/01:30pm 36.2 36.1 15.9 30 13.0 NNW 11 20 6 11 1005.5 1003.9 0.0
21/01:00pm 36.3 36.4 17.4 32 12.3 NNW 13 20 7 11 1006.5 1004.8 0.0
21/12:30pm 36.4 35.6 17.0 31 12.6 N 17 32 9 17 1007.1 1005.4 0.0
21/12:00pm 35.8 35.7 17.0 32 12.2 NW 13 22 7 12 1007.7 1006.0 0.0
21/11:30am 35.4 34.4 17.6 35 11.6 NNW 19 32 10 17 1008.3 1006.6 0.0
21/11:00am 35.1 34.9 18.6 37 10.9 NNW 17 30 9 16 1008.7 1007.0 0.0
21/10:30am 34.2 34.3 18.3 39 10.4 NNW 15 28 8 15 1009.1 1007.4 0.0
21/10:00am 33.3 33.3 19.0 42 9.4 NW 17 26 9 14 1009.3 1007.7 0.0
21/09:30am 32.0 31.6 18.9 45 8.6 NNW 19 32 10 17 1009.6 1008.0 0.0
21/09:00am 31.4 31.6 19.4 49 7.9 NNW 17 30 9 16 1009.7 1008.1 0.0
21/08:30am 30.7 30.5 19.4 51 7.5 NNW 19 32 10 17 1009.9 1008.3 0.0
21/08:00am 29.5 29.2 19.2 54 6.7 N 19 30 10 16 1009.6 1008.0 0.0
21/07:30am 29.0 29.2 19.3 55 6.4 N 17 24 9 13 1009.4 1007.8 0.0
21/07:00am 28.3 28.5 20.1 61 5.4 N 19 28 10 15 1009.1 1007.4 0.0
21/06:30am 27.4 28.8 21.0 68 4.3 N 15 20 8 11 1008.9 1007.2 0.0
21/06:00am 26.9 28.9 21.6 72 3.6 N 13 17 7 9 1008.6 1006.9 0.0
21/05:30am 26.5 29.3 21.5 74 3.4 N 9 11 5 6 1008.2 1006.5 0.0
21/05:00am 26.6 29.3 21.4 73 3.5 NNE 9 13 5 7 1007.9 1006.2 0.0
21/04:30am 26.8 28.7 21.3 72 3.7 NNE 13 19 7 10 1007.3 1005.6 0.0
21/04:00am 27.0 28.4 21.1 70 3.9 NNE 15 20 8 11 1007.0 1005.3 0.0
21/03:30am 27.3 28.5 20.6 67 4.5 NE 15 20 8 11 1006.9 1005.2 0.0
21/03:00am 27.8 29.2 20.4 64 4.9 NE 13 17 7 9 1007.3 1005.6 0.0
21/02:30am 28.2 29.4 20.0 61 5.4 NE 13 19 7 10 1007.2 1005.5 0.0
21/02:00am 29.0 29.4 19.9 58 6.0 NNE 17 20 9 11 1007.4 1005.7 0.0
21/01:30am 29.5 29.8 20.4 58 6.1 NNE 19 26 10 14 1007.5 1005.8 0.0
21/01:00am 29.6 30.0 21.0 60 5.8 NNE 20 30 11 16 1007.7 1006.0 0.0
21/12:30am 29.6 29.8 20.2 57 6.3 NE 19 28 10 15 1007.7 1006.0 0.0
21/12:00am 30.0 30.2 19.4 53 7.0 NE 17 22 9 12 1008.0 1006.3 0.0
 
Date/Time
CST
Temp
°C
App
Temp
°C
Dew
Point
°C
Rel
Hum
%
Delta-T
°C
Wind Press
QNH
hPa
Press
MSL
hPa
Rain since
9am
mm
Dir  Spd
km/h
Gust
km/h
Spd
kts
Gust
kts
20/11:30pm 30.0 27.7 9.0 27 11.8 ENE 11 15 6 8 1008.1 1006.4 0.0
20/11:00pm 30.0 25.9 4.6 20 13.3 ESE 15 17 8 9 1007.8 1006.1 0.0
20/10:30pm 31.9 28.2 4.6 18 14.4 E 13 17 7 9 1008.0 1006.3 0.0
20/10:00pm 33.8 31.1 5.4 17 15.3 ENE 9 17 5 9 1008.0 1006.3 0.0
20/09:30pm 34.2 32.0 8.0 20 14.8 WSW 9 17 5 9 1007.8 1006.1 0.0
20/09:00pm 31.2 31.6 11.1 29 11.7 CALM 0 0 0 0 1006.9 1005.2 0.0
20/08:30pm 32.3 32.8 11.5 28 12.3 CALM 0 0 0 0 1006.7 1005.0 0.0
20/08:00pm 33.9 32.8 9.9 23 13.9 NNE 6 7 3 4 1006.5 1004.8 0.0
20/07:30pm 34.7 33.4 9.9 22 14.5 ESE 7 9 4 5 1006.0 1004.4 0.0
20/07:00pm 35.0 33.6 8.7 20 15.1 S 6 7 3 4 1005.7 1004.1 0.0
20/06:30pm 36.4 34.7 8.3 18 16.1 SW 7 11 4 6 1005.5 1003.9 0.0
20/06:00pm 38.6 37.1 9.2 17 17.2 WSW 7 11 4 6 1005.3 1003.7 0.0
20/05:30pm 38.9 37.8 8.5 16 17.7 S 4 11 2 6 1005.1 1003.4 0.0
20/05:00pm 38.8 36.7 6.5 14 18.2 S 7 15 4 8 1005.2 1003.5 0.0
20/04:30pm 38.5 36.5 7.3 15 17.8 SSW 7 13 4 7 1005.3 1003.7 0.0
20/04:00pm 38.7 36.6 8.4 16 17.5 W 9 17 5 9 1005.4 1003.8 0.0
20/03:30pm 39.1 37.6 6.7 14 18.4 N 4 9 2 5 1005.5 1003.9 0.0
20/03:00pm 39.2 35.8 5.7 13 18.7 WSW 13 22 7 12 1005.9 1004.3 0.0
20/02:30pm 39.2 36.9 5.7 13 18.7 SSW 7 17 4 9 1006.2 1004.5 0.0
20/02:00pm 39.2 36.9 5.7 13 18.7 E 7 15 4 8 1006.6 1004.9 0.0
20/01:30pm 39.2 36.5 5.7 13 18.7 W 9 17 5 9 1007.0 1005.3 0.0
20/01:00pm 39.3 36.3 5.8 13 18.7 NNW 11 28 6 15 1007.4 1005.7 0.0
20/12:30pm 39.0 37.1 7.7 15 18.0 N 7 13 4 7 1007.9 1006.2 0.0
20/12:00pm 37.9 35.8 6.8 15 17.5 NW 7 17 4 9 1008.4 1006.7 0.0
20/11:30am 38.4 35.3 9.0 17 17.2 NNE 15 24 8 13 1008.7 1007.0 0.0
20/11:00am 36.6 34.8 10.7 21 15.4 WNW 11 19 6 10 1009.2 1007.6 0.0
20/10:30am 36.4 33.7 9.1 19 15.8 WNW 13 24 7 13 1009.7 1008.1 0.0
20/10:00am 36.0 34.6 13.5 26 13.9 WNW 13 20 7 11 1009.9 1008.3 0.0
20/09:30am 34.6 33.8 15.0 31 12.3 NW 13 24 7 13 1010.2 1008.6 0.0
20/09:00am 33.7 33.8 16.6 36 10.9 NW 11 17 6 9 1010.5 1008.9 0.0
20/08:30am 32.5 33.1 16.8 39 10.0 NW 9 19 5 10 1010.5 1008.9 0.0
20/08:00am 30.5 30.8 17.9 47 8.1 NW 13 20 7 11 1010.3 1008.7 0.0
20/07:30am 29.0 30.0 18.7 53 6.7 NNW 11 15 6 8 1010.3 1008.7 0.0
20/07:00am 27.1 28.8 18.4 59 5.6 N 7 11 4 6 1010.3 1008.7 0.0
20/06:30am 25.4 26.3 17.6 62 4.9 NE 9 13 5 7 1010.0 1008.4 0.0
20/06:00am 24.6 24.9 16.1 59 5.2 NE 9 11 5 6 1009.8 1008.2 0.0
20/05:30am 23.9 24.1 14.6 56 5.6 ENE 7 9 4 5 1009.5 1007.9 0.0
20/05:00am 24.5 24.3 13.7 51 6.4 NNE 7 9 4 5 1009.2 1007.6 0.0
20/04:30am 24.6 23.9 13.2 49 6.7 NNE 9 13 5 7 1008.8 1007.1 0.0
20/04:00am 25.1 23.3 9.4 37 8.7 NE 9 11 5 6 1008.7 1007.0 0.0
20/03:30am 25.8 23.4 5.4 27 10.6 ENE 7 11 4 6 1008.5 1006.8 0.0
20/03:00am 26.9 24.0 2.7 21 12.0 ENE 7 11 4 6 1008.2 1006.5 0.0
20/02:30am 28.2 23.8 -2.8 13 14.1 E 11 17 6 9 1008.2 1006.5 0.0
20/02:00am 28.0 22.5 -2.0 14 13.8 ENE 17 24 9 13 1008.2 1006.5 0.0
20/01:30am 26.6 22.6 0.4 18 12.5 E 11 15 6 8 1007.8 1006.1 0.0
20/01:00am 26.4 22.8 0.9 19 12.2 E 9 11 5 6 1007.9 1006.2 0.0
20/12:30am 26.1 21.8 0.7 19 12.1 E 13 15 7 8 1007.9 1006.2 0.0
20/12:00am 26.3 22.7 0.9 19 12.1 ESE 9 11 5 6 1008.1 1006.4 0.0
 
Date/Time
CST
Temp
°C
App
Temp
°C
Dew
Point
°C
Rel
Hum
%
Delta-T
°C
Wind Press
QNH
hPa
Press
MSL
hPa
Rain since
9am
mm
Dir  Spd
km/h
Gust
km/h
Spd
kts
Gust
kts
19/11:30pm 27.8 23.3 -0.3 16 13.3 ESE 13 15 7 8 1008.0 1006.3 0.0
19/11:00pm 28.4 23.6 0.2 16 13.5 SE 15 19 8 10 1008.1 1006.4 0.0
19/10:30pm 27.8 23.4 0.5 17 13.1 SSE 13 13 7 7 1008.2 1006.5 0.0
19/10:00pm 28.7 24.7 0.4 16 13.6 SE 11 13 6 7 1008.1 1006.4 0.0
19/09:30pm 30.5 25.9 -1.0 13 15.0 SSE 13 17 7 9 1008.1 1006.4 0.0
19/09:00pm 30.9 26.1 0.3 14 14.9 SSE 15 17 8 9 1007.8 1006.1 0.0
19/08:30pm 31.1 26.7 0.5 14 15.0 SSE 13 17 7 9 1007.7 1006.0 0.0
19/08:00pm 32.6 28.2 0.6 13 15.9 SSE 13 17 7 9 1007.4 1005.7 0.0
19/07:30pm 33.2 28.9 1.1 13 16.2 SSE 13 15 7 8 1007.2 1005.5 0.0
19/07:00pm 33.7 29.9 1.5 13 16.3 S 11 13 6 7 1006.9 1005.2 0.0
19/06:30pm 36.4 32.1 1.2 11 18.1 SSW 13 17 7 9 1006.5 1004.8 0.0
19/06:00pm 38.4 34.0 2.8 11 18.9 SSW 15 20 8 11 1006.3 1004.6 0.0
19/05:30pm 39.4 35.5 3.5 11 19.4 SW 13 24 7 13 1005.9 1004.3 0.0
19/05:00pm 39.4 35.3 2.2 10 19.7 SSE 13 20 7 11 1005.7 1004.1 0.0
19/04:30pm 39.6 35.5 2.3 10 19.9 SSW 13 22 7 12 1005.7 1004.1 0.0
19/04:00pm 39.8 35.7 2.5 10 19.9 WSW 13 22 7 12 1005.7 1004.1 0.0
19/03:30pm 40.1 36.7 4.0 11 19.8 S 11 24 6 13 1006.0 1004.4 0.0
19/03:00pm 39.2 35.1 4.6 12 19.0 SW 15 24 8 13 1006.6 1004.9 0.0
19/02:30pm 39.1 35.4 4.5 12 19.0 SSW 13 22 7 12 1007.0 1005.3 0.0
19/02:00pm 39.6 35.1 6.1 13 18.8 SW 19 28 10 15 1007.5 1005.8 0.0
19/01:30pm 39.3 36.5 6.9 14 18.4 S 11 33 6 18 1007.9 1006.2 0.0
19/01:00pm 38.5 34.4 6.3 14 18.1 SW 17 33 9 18 1008.3 1006.6 0.0
19/12:30pm 38.4 34.4 5.1 13 18.4 SSW 15 26 8 14 1008.7 1007.0 0.0
19/12:00pm 37.3 34.4 8.2 17 16.7 NNW 13 26 7 14 1009.3 1007.7 0.0
19/11:30am 36.6 34.1 6.7 16 16.7 N 9 15 5 8 1009.8 1008.2 0.0
19/11:00am 36.6 34.0 7.6 17 16.4 NW 11 26 6 14 1010.2 1008.6 0.0
19/10:30am 36.2 34.3 8.9 19 15.8 NNW 9 17 5 9 1010.5 1008.9 0.0
19/10:00am 35.0 32.4 7.9 19 15.3 N 11 19 6 10 1010.9 1009.2 0.0
19/09:30am 34.4 31.7 7.5 19 15.1 N 11 17 6 9 1011.3 1009.6 0.0
19/09:00am 33.7 31.3 6.9 19 14.8 NW 9 20 5 11 1011.6 1009.9 0.0
19/08:30am 33.0 31.8 10.4 25 13.2 W 7 15 4 8 1011.5 1009.8 0.0
19/08:00am 31.4 29.7 11.2 29 11.8 W 11 15 6 8 1011.4 1009.7 0.0

Other Formats:

Comma delimited format used in spreadsheet applications
http://www.bom.gov.au/fwo/IDD60801/IDD60801.94255.axf

JavaScript Object Notation format (JSON) in row-major order
http://www.bom.gov.au/fwo/IDD60801/IDD60801.94255.json